Time;durP1;ratioP1;P1;durP2;ratioP2;P2;SDS_P1;SDS_P2;PMS_P1;PMS_P2;Temp;Humidity;BMP_temperature;BMP_pressure;BME280_temperature;BME280_humidity;BME280_pressure;Samples;Min_cycle;Max_cycle;Signal;HPM_P1;HPM_P2
2023/12/10 00:02:48;;;;;;;50.40;22.17;;;;;;;;;;8365401;28;20075;-92
2023/12/10 00:07:01;;;;;;;49.70;22.48;;;;;;;;;;8365298;28;20044;-91
2023/12/10 00:11:04;;;;;;;42.85;19.10;;;;;;;;;;8365586;28;20467;-92
2023/12/10 00:15:08;;;;;;;51.78;19.23;;;;;;;;;;8366134;28;20049;-92
2023/12/10 00:19:11;;;;;;;41.53;18.27;;;;;;;;;;8365875;28;20053;-94
2023/12/10 00:23:19;;;;;;;47.83;21.33;;;;;;;;;;8347760;28;20051;-92
2023/12/10 00:27:21;;;;;;;45.20;19.63;;;;;;;;;;8365766;28;20049;-93
2023/12/10 00:31:43;;;;;;;41.58;19.60;;;;;;;;;;8365713;28;20101;-92
2023/12/10 00:35:53;;;;;;;39.97;16.33;;;;;;;;;;8364074;28;20258;-93
2023/12/10 00:39:59;;;;;;;26.27;12.45;;;;;;;;;;8364005;28;20037;-93
2023/12/10 00:44:02;;;;;;;44.08;18.42;;;;;;;;;;8346910;28;20055;-93
2023/12/10 00:48:08;;;;;;;40.38;17.98;;;;;;;;;;8347336;28;20068;-93
2023/12/10 00:52:13;;;;;;;46.25;19.33;;;;;;;;;;8364834;28;20068;-93
2023/12/10 00:56:27;;;;;;;42.80;17.48;;;;;;;;;;8364339;28;20064;-93
2023/12/10 01:00:30;;;;;;;41.50;17.60;;;;;;;;;;8364565;28;20049;-92
2023/12/10 01:04:33;;;;;;;38.05;16.92;;;;;;;;;;8364530;28;20114;-93
2023/12/10 01:08:44;;;;;;;36.95;16.42;;;;;;;;;;8364331;28;20120;-92
2023/12/10 01:12:54;;;;;;;36.40;17.35;;;;;;;;;;8364292;28;20048;-93
2023/12/10 01:17:04;;;;;;;37.35;16.63;;;;;;;;;;8367173;28;20075;-91
2023/12/10 01:21:09;;;;;;;16.13;7.72;;;;;;;;;;8369558;28;20378;-93
2023/12/10 01:25:14;;;;;;;41.08;17.80;;;;;;;;;;8369415;28;20096;-93
2023/12/10 01:29:21;;;;;;;32.08;13.80;;;;;;;;;;8369239;28;20045;-92
2023/12/10 01:33:24;;;;;;;32.63;15.18;;;;;;;;;;8375398;28;20052;-92
2023/12/10 01:37:28;;;;;;;41.15;15.73;;;;;;;;;;8370117;28;20084;-93
2023/12/10 01:41:31;;;;;;;32.67;13.77;;;;;;;;;;8369526;28;20096;-92
2023/12/10 01:45:36;;;;;;;40.70;16.05;;;;;;;;;;8352143;28;20227;-91
2023/12/10 01:49:39;;;;;;;32.55;16.15;;;;;;;;;;8368947;28;20057;-93
2023/12/10 01:53:46;;;;;;;34.42;15.63;;;;;;;;;;8369014;28;20461;-91
2023/12/10 01:57:49;;;;;;;32.47;15.35;;;;;;;;;;8352229;28;20103;-93
2023/12/10 02:01:54;;;;;;;37.38;15.45;;;;;;;;;;8368759;28;20060;-89
2023/12/10 02:05:57;;;;;;;41.63;17.40;;;;;;;;;;8368791;28;20435;-92
2023/12/10 02:10:00;;;;;;;29.98;13.18;;;;;;;;;;8368957;28;20049;-92
2023/12/10 02:14:04;;;;;;;35.15;14.90;;;;;;;;;;8368503;28;20068;-92
2023/12/10 02:18:09;;;;;;;36.25;14.80;;;;;;;;;;8368964;28;20056;-93
2023/12/10 02:22:14;;;;;;;32.90;13.15;;;;;;;;;;8368311;28;20048;-90
2023/12/10 02:26:18;;;;;;;43.22;14.75;;;;;;;;;;8350935;28;20056;-92
2023/12/10 02:30:22;;;;;;;30.20;13.27;;;;;;;;;;8367767;28;20076;-92
2023/12/10 02:34:25;;;;;;;33.35;13.82;;;;;;;;;;8368205;28;20048;-93
2023/12/10 02:38:28;;;;;;;31.90;13.43;;;;;;;;;;8368128;28;20064;-92
2023/12/10 02:42:37;;;;;;;32.75;14.43;;;;;;;;;;8367885;28;20052;-93
2023/12/10 02:46:45;;;;;;;36.03;14.43;;;;;;;;;;8367204;28;20412;-91
2023/12/10 02:50:47;;;;;;;32.22;13.27;;;;;;;;;;8368072;28;20056;-93
2023/12/10 02:54:52;;;;;;;36.17;12.77;;;;;;;;;;8367616;28;20103;-93
2023/12/10 02:58:57;;;;;;;38.40;13.95;;;;;;;;;;8367428;28;20124;-92
2023/12/10 03:03:09;;;;;;;28.33;13.10;;;;;;;;;;8348902;28;20057;-93
2023/12/10 03:07:12;;;;;;;;;;;;;;;;;;8368647;28;20085;-93
2023/12/10 03:11:17;;;;;;;28.33;12.45;;;;;;;;;;8350798;28;20013;-92
2023/12/10 03:15:26;;;;;;;26.75;12.20;;;;;;;;;;8367821;28;20041;-92
2023/12/10 03:19:29;;;;;;;27.33;13.23;;;;;;;;;;8365478;28;20076;-93
2023/12/10 03:23:31;;;;;;;29.25;13.95;;;;;;;;;;8365272;28;20044;-94
2023/12/10 03:27:35;;;;;;;34.95;13.75;;;;;;;;;;8366142;28;20045;-90
2023/12/10 03:31:39;;;;;;;32.80;13.15;;;;;;;;;;8366295;28;20052;-90
2023/12/10 03:35:51;;;;;;;27.75;11.10;;;;;;;;;;8366401;28;20459;-93
2023/12/10 03:39:53;;;;;;;;;;;;;;;;;;8366351;28;20136;-92
2023/12/10 03:43:56;;;;;;;25.70;11.73;;;;;;;;;;8366338;28;19920;-93
2023/12/10 03:48:01;;;;;;;26.30;12.30;;;;;;;;;;8365740;28;20061;-93
2023/12/10 03:52:04;;;;;;;31.65;11.20;;;;;;;;;;8365792;28;20049;-92
2023/12/10 03:56:12;;;;;;;25.80;11.13;;;;;;;;;;8366244;28;20048;-93
2023/12/10 04:00:42;;;;;;;32.25;12.93;;;;;;;;;;8366299;28;20056;-92
2023/12/10 04:04:47;;;;;;;26.52;10.82;;;;;;;;;;8365998;28;20361;-90
2023/12/10 04:08:50;;;;;;;31.77;13.32;;;;;;;;;;8365755;28;20076;-91
2023/12/10 04:12:53;;;;;;;28.33;11.63;;;;;;;;;;8365583;28;20049;-93
2023/12/10 04:17:06;;;;;;;34.78;14.23;;;;;;;;;;8366151;28;20045;-91
2023/12/10 04:21:10;;;;;;;38.70;16.00;;;;;;;;;;8365719;28;20052;-93
2023/12/10 04:25:13;;;;;;;31.55;13.38;;;;;;;;;;8365738;28;20047;-93
2023/12/10 04:29:17;;;;;;;35.63;13.88;;;;;;;;;;8366057;28;20041;-93
2023/12/10 04:33:21;;;;;;;35.60;14.60;;;;;;;;;;8348730;28;20052;-92
2023/12/10 04:37:26;;;;;;;38.28;17.60;;;;;;;;;;8365860;28;20098;-92
2023/12/10 04:41:28;;;;;;;30.63;13.70;;;;;;;;;;8365989;28;20037;-93
2023/12/10 04:45:32;;;;;;;84.22;38.45;;;;;;;;;;8348533;28;20045;-92
2023/12/10 04:49:35;;;;;;;42.72;19.40;;;;;;;;;;8365261;28;20575;-91
2023/12/10 04:53:40;;;;;;;81.88;37.75;;;;;;;;;;8374142;28;20052;-91
2023/12/10 04:57:43;;;;;;;97.10;41.70;;;;;;;;;;8354351;28;20044;-93
2023/12/10 05:01:48;;;;;;;43.78;16.55;;;;;;;;;;8371705;28;20051;-91
2023/12/10 05:05:51;;;;;;;60.08;24.30;;;;;;;;;;8353807;28;20480;-93
2023/12/10 05:09:57;;;;;;;56.45;23.48;;;;;;;;;;8371745;28;20124;-94
2023/12/10 05:14:00;;;;;;;35.25;16.30;;;;;;;;;;8354568;28;20076;-92
2023/12/10 05:18:05;;;;;;;40.22;16.00;;;;;;;;;;8370927;28;20048;-92
2023/12/10 05:22:24;;;;;;;31.58;14.80;;;;;;;;;;8371167;28;20560;-93
2023/12/10 05:26:31;;;;;;;43.05;15.25;;;;;;;;;;8371003;28;20550;-93
2023/12/10 05:30:34;;;;;;;52.30;17.35;;;;;;;;;;8370577;28;20048;-91
2023/12/10 05:34:37;;;;;;;87.13;25.88;;;;;;;;;;8371203;28;20073;-93
2023/12/10 05:38:40;;;;;;;34.50;15.98;;;;;;;;;;8370756;28;20465;-92
2023/12/10 05:42:45;;;;;;;34.33;15.02;;;;;;;;;;8370532;28;20510;-92
2023/12/10 05:46:48;;;;;;;36.05;16.70;;;;;;;;;;8371464;28;20084;-93
2023/12/10 05:50:51;;;;;;;33.83;13.63;;;;;;;;;;8371165;28;20045;-94
2023/12/10 05:54:59;;;;;;;27.90;11.68;;;;;;;;;;8371868;28;20457;-91
2023/12/10 05:59:03;;;;;;;29.40;14.02;;;;;;;;;;8371007;28;20445;-94
2023/12/10 06:03:08;;;;;;;34.95;13.48;;;;;;;;;;8351695;28;20109;-91
2023/12/10 06:07:11;;;;;;;23.85;10.43;;;;;;;;;;8369276;28;20435;-93
2023/12/10 06:11:17;;;;;;;36.30;16.10;;;;;;;;;;8352334;28;20049;-93
2023/12/10 06:15:22;;;;;;;37.30;12.35;;;;;;;;;;8353120;28;20180;-92
2023/12/10 06:19:26;;;;;;;30.00;12.68;;;;;;;;;;8369936;28;20511;-92
2023/12/10 06:23:28;;;;;;;32.47;13.18;;;;;;;;;;8351414;28;20094;-91
2023/12/10 06:27:31;;;;;;;41.42;19.45;;;;;;;;;;8368976;28;20467;-93
2023/12/10 06:31:39;;;;;;;43.63;19.80;;;;;;;;;;8369295;28;20044;-93
2023/12/10 06:35:42;;;;;;;38.97;16.42;;;;;;;;;;8351632;28;20475;-92
2023/12/10 06:39:45;;;;;;;46.92;18.08;;;;;;;;;;8368409;28;20048;-92
2023/12/10 06:43:48;;;;;;;45.65;22.70;;;;;;;;;;8350893;28;20531;-92
2023/12/10 06:47:58;;;;;;;39.95;17.88;;;;;;;;;;8367361;28;20095;-93
2023/12/10 06:52:01;;;;;;;34.08;13.88;;;;;;;;;;8368065;28;20537;-90
2023/12/10 06:56:08;;;;;;;37.40;18.00;;;;;;;;;;8367271;28;20080;-86
2023/12/10 07:00:17;;;;;;;42.80;18.98;;;;;;;;;;8367408;28;20218;-92
2023/12/10 07:04:24;;;;;;;40.95;16.92;;;;;;;;;;8350283;28;20060;-86
2023/12/10 07:08:27;;;;;;;42.47;18.40;;;;;;;;;;8367581;28;20049;-94
2023/12/10 07:12:31;;;;;;;35.03;16.88;;;;;;;;;;8350115;28;20444;-93
2023/12/10 07:16:43;;;;;;;27.08;12.65;;;;;;;;;;8367281;28;20041;-94
2023/12/10 07:20:47;;;;;;;24.50;9.00;;;;;;;;;;8367367;28;20063;-94
2023/12/10 07:24:50;;;;;;;30.17;12.93;;;;;;;;;;8368258;28;20403;-92
2023/12/10 07:28:53;;;;;;;29.27;12.20;;;;;;;;;;8368270;28;20045;-93
2023/12/10 07:32:56;;;;;;;28.60;11.82;;;;;;;;;;8350645;28;20401;-87
2023/12/10 07:37:01;;;;;;;24.38;11.18;;;;;;;;;;8350040;28;20056;-92
2023/12/10 07:41:04;;;;;;;24.65;11.43;;;;;;;;;;8349399;28;20041;-93
2023/12/10 07:45:08;;;;;;;22.13;9.68;;;;;;;;;;8350150;28;20142;-91
2023/12/10 07:49:11;;;;;;;25.77;10.73;;;;;;;;;;8366576;28;20053;-91
2023/12/10 07:53:16;;;;;;;22.60;10.23;;;;;;;;;;8367298;28;20118;-93
2023/12/10 07:57:20;;;;;;;23.30;11.63;;;;;;;;;;8367153;28;20119;-94
2023/12/10 08:01:22;;;;;;;28.73;14.30;;;;;;;;;;8367017;28;20103;-94
2023/12/10 08:05:26;;;;;;;26.55;12.07;;;;;;;;;;8367030;28;20037;-94
2023/12/10 08:09:30;;;;;;;22.95;9.93;;;;;;;;;;8367206;28;20098;-95
2023/12/10 08:13:33;;;;;;;27.77;13.77;;;;;;;;;;8368823;28;20040;-92
2023/12/10 08:17:36;;;;;;;26.30;11.05;;;;;;;;;;8351955;28;20583;-94
2023/12/10 08:21:50;;;;;;;28.73;11.15;;;;;;;;;;8367072;28;20110;-95
2023/12/10 08:26:00;;;;;;;17.40;8.82;;;;;;;;;;8368039;28;20098;-89
2023/12/10 08:30:06;;;;;;;45.53;22.73;;;;;;;;;;8373063;28;20052;-92
2023/12/10 08:34:16;;;;;;;32.60;17.17;;;;;;;;;;8374256;28;20044;-93
2023/12/10 08:38:19;;;;;;;29.88;15.10;;;;;;;;;;8374348;28;20060;-94
2023/12/10 08:42:24;;;;;;;34.63;20.23;;;;;;;;;;8373530;28;20556;-94
2023/12/10 08:46:27;;;;;;;44.75;27.40;;;;;;;;;;8377818;28;20052;-92
2023/12/10 08:50:30;;;;;;;36.40;21.98;;;;;;;;;;8397548;28;20102;-90
2023/12/10 08:54:33;;;;;;;30.38;17.40;;;;;;;;;;8405416;28;20048;-94
2023/12/10 08:58:40;;;;;;;25.33;13.02;;;;;;;;;;8404212;28;20129;-90
2023/12/10 09:02:45;;;;;;;24.75;16.52;;;;;;;;;;8386484;23;20058;-93
2023/12/10 09:07:00;;;;;;;29.55;17.35;;;;;;;;;;8305046;28;20053;-87
2023/12/10 09:11:04;;;;;;;34.97;17.33;;;;;;;;;;8302844;28;20049;-92
2023/12/10 09:15:11;;;;;;;39.22;18.15;;;;;;;;;;8294925;28;20046;-88
2023/12/10 09:19:21;;;;;;;67.57;31.30;;;;;;;;;;8295906;28;20050;-93
2023/12/10 09:23:27;;;;;;;30.08;14.20;;;;;;;;;;8298363;28;20054;-94
2023/12/10 09:27:33;;;;;;;32.05;16.70;;;;;;;;;;8291553;28;20056;-92
2023/12/10 09:32:16;;;;;;;29.02;13.95;;;;;;;;;;8303433;28;20049;-95
2023/12/10 09:36:25;;;;;;;35.97;15.88;;;;;;;;;;8289521;28;20057;-92
2023/12/10 09:40:28;;;;;;;31.40;14.73;;;;;;;;;;8293528;28;20141;-94
2023/12/10 09:44:32;;;;;;;71.72;34.88;;;;;;;;;;8300907;28;20462;-92
2023/12/10 09:48:35;;;;;;;30.40;14.48;;;;;;;;;;8299286;28;20413;-94
2023/12/10 09:52:41;;;;;;;26.48;12.35;;;;;;;;;;8301562;28;20042;-93
2023/12/10 09:56:47;;;;;;;35.72;15.35;;;;;;;;;;8295282;28;20054;-92
2023/12/10 10:00:50;;;;;;;45.55;22.75;;;;;;;;;;8289738;28;20053;-94
2023/12/10 10:04:53;;;;;;;45.72;20.15;;;;;;;;;;8323967;28;20053;-94
2023/12/10 10:08:59;;;;;;;131.70;54.38;;;;;;;;;;8309109;28;20522;-94
2023/12/10 10:13:06;;;;;;;48.00;22.63;;;;;;;;;;8285785;28;20068;-94
2023/12/10 10:17:10;;;;;;;52.40;23.35;;;;;;;;;;8303677;28;20053;-95
2023/12/10 10:21:14;;;;;;;37.60;17.30;;;;;;;;;;8303539;28;20050;-93
2023/12/10 10:25:19;;;;;;;74.15;31.23;;;;;;;;;;8303622;28;20062;-94
2023/12/10 10:29:25;;;;;;;48.80;23.15;;;;;;;;;;8303061;28;20461;-93
2023/12/10 10:33:29;;;;;;;42.03;18.05;;;;;;;;;;8303229;28;20078;-94
2023/12/10 10:37:32;;;;;;;29.77;14.55;;;;;;;;;;8302674;28;20148;-94
2023/12/10 10:41:37;;;;;;;43.20;18.77;;;;;;;;;;8302707;28;20049;-93
2023/12/10 10:45:40;;;;;;;32.13;14.05;;;;;;;;;;8302635;28;20045;-94
2023/12/10 10:49:46;;;;;;;38.25;18.83;;;;;;;;;;8301219;28;20046;-94
2023/12/10 10:53:49;;;;;;;41.28;19.05;;;;;;;;;;8302664;28;20398;-93
2023/12/10 10:57:54;;;;;;;41.85;18.27;;;;;;;;;;8302612;28;20080;-92
2023/12/10 11:01:59;;;;;;;70.88;37.22;;;;;;;;;;8302082;28;20123;-93
2023/12/10 11:06:04;;;;;;;27.95;12.18;;;;;;;;;;8302902;28;20451;-93
2023/12/10 11:10:08;;;;;;;31.38;14.57;;;;;;;;;;8301975;28;20115;-92
2023/12/10 11:14:32;;;;;;;50.83;26.08;;;;;;;;;;8301719;28;20056;-93
2023/12/10 11:18:51;;;;;;;32.40;15.43;;;;;;;;;;8300716;28;20516;-94
2023/12/10 11:22:54;;;;;;;40.70;17.73;;;;;;;;;;8301555;28;20053;-94
2023/12/10 11:26:57;;;;;;;61.92;32.28;;;;;;;;;;8301296;28;20409;-93
2023/12/10 11:31:01;;;;;;;39.47;19.13;;;;;;;;;;8299743;28;20060;-93
2023/12/10 11:35:05;;;;;;;39.75;21.65;;;;;;;;;;8299381;28;20053;-92
2023/12/10 11:39:13;;;;;;;33.38;15.50;;;;;;;;;;8300283;28;20056;-94
2023/12/10 11:43:16;;;;;;;39.10;17.98;;;;;;;;;;8300219;28;20409;-91
2023/12/10 11:47:21;;;;;;;41.00;16.50;;;;;;;;;;8303801;28;20077;-92
2023/12/10 11:51:24;;;;;;;37.70;20.67;;;;;;;;;;8301003;28;20050;-92
2023/12/10 11:55:27;;;;;;;22.05;11.13;;;;;;;;;;8299859;28;20046;-92
2023/12/10 11:59:31;;;;;;;39.85;19.35;;;;;;;;;;8299810;28;20383;-91
2023/12/10 12:03:36;;;;;;;25.13;12.45;;;;;;;;;;8299587;28;20054;-91
2023/12/10 12:07:39;;;;;;;32.38;16.17;;;;;;;;;;8299422;28;20095;-91
2023/12/10 12:11:42;;;;;;;25.85;11.45;;;;;;;;;;8281848;28;20092;-92
2023/12/10 12:15:48;;;;;;;26.73;15.65;;;;;;;;;;8299351;28;20049;-94
2023/12/10 12:19:53;;;;;;;31.45;15.90;;;;;;;;;;8299724;28;20042;-92
2023/12/10 12:23:56;;;;;;;26.73;15.90;;;;;;;;;;8299676;28;20067;-91
2023/12/10 12:33:00;;;;;;;26.38;11.80;;;;;;;;;;8299271;28;20564;-93
2023/12/10 12:37:05;;;;;;;25.98;13.70;;;;;;;;;;8299446;28;20063;-92
2023/12/10 12:41:10;;;;;;;25.23;12.73;;;;;;;;;;8299259;28;20077;-90
2023/12/10 12:45:13;;;;;;;28.77;14.75;;;;;;;;;;8299447;28;20121;-92
2023/12/10 12:49:17;;;;;;;37.97;16.77;;;;;;;;;;8298817;28;20049;-92
2023/12/10 12:53:21;;;;;;;41.50;16.83;;;;;;;;;;8299148;28;20077;-91
2023/12/10 12:57:24;;;;;;;43.22;21.58;;;;;;;;;;8299035;28;20133;-93
2023/12/10 13:01:27;;;;;;;35.72;17.58;;;;;;;;;;8297959;28;20057;-91
2023/12/10 13:05:30;;;;;;;55.10;24.33;;;;;;;;;;8298340;28;20053;-91
2023/12/10 13:09:35;;;;;;;34.33;14.82;;;;;;;;;;8280351;28;20057;-90
2023/12/10 13:13:38;;;;;;;33.63;15.18;;;;;;;;;;8284453;28;20049;-90
2023/12/10 13:17:41;;;;;;;39.10;16.20;;;;;;;;;;8304198;28;20553;-92
2023/12/10 13:21:44;;;;;;;33.47;15.32;;;;;;;;;;8303694;28;20053;-91
2023/12/10 13:25:49;;;;;;;36.58;15.98;;;;;;;;;;8305548;28;20046;-91
2023/12/10 13:29:52;;;;;;;44.58;25.60;;;;;;;;;;8310861;28;20663;-91
2023/12/10 13:33:55;;;;;;;33.95;15.75;;;;;;;;;;8304096;28;20053;-91
2023/12/10 13:37:58;;;;;;;31.63;15.27;;;;;;;;;;8303367;28;20042;-92
2023/12/10 13:42:03;;;;;;;35.75;15.48;;;;;;;;;;8303423;28;20052;-91
2023/12/10 13:46:07;;;;;;;33.80;16.95;;;;;;;;;;8303267;28;20493;-91
2023/12/10 13:50:10;;;;;;;34.97;17.65;;;;;;;;;;8303179;28;20125;-91
2023/12/10 13:54:14;;;;;;;34.42;17.52;;;;;;;;;;8302856;28;20506;-91
2023/12/10 13:58:19;;;;;;;29.13;12.45;;;;;;;;;;8285582;28;20069;-91
2023/12/10 14:02:29;;;;;;;37.22;18.60;;;;;;;;;;8302516;28;20698;-92
2023/12/10 14:06:38;;;;;;;60.55;31.60;;;;;;;;;;8302773;28;20049;-91
2023/12/10 14:10:41;;;;;;;47.22;22.77;;;;;;;;;;8302869;28;20092;-90
2023/12/10 14:14:46;;;;;;;59.97;26.35;;;;;;;;;;8301941;28;20494;-91
2023/12/10 14:18:52;;;;;;;100.75;44.53;;;;;;;;;;8300862;28;20057;-91
2023/12/10 14:22:58;;;;;;;60.80;27.27;;;;;;;;;;8301333;28;20490;-90
2023/12/10 14:27:01;;;;;;;131.77;56.55;;;;;;;;;;8301355;28;20133;-92
2023/12/10 14:31:07;;;;;;;78.30;36.22;;;;;;;;;;8301522;28;20412;-90
2023/12/10 14:35:10;;;;;;;70.25;29.27;;;;;;;;;;8284200;28;20076;-91
2023/12/10 14:39:13;;;;;;;65.00;27.77;;;;;;;;;;8300887;28;20049;-92
2023/12/10 14:43:16;;;;;;;78.82;36.75;;;;;;;;;;8300703;28;20054;-91
2023/12/10 14:47:23;;;;;;;61.85;29.42;;;;;;;;;;8301244;28;20045;-92
2023/12/10 14:51:29;;;;;;;41.40;21.05;;;;;;;;;;8300610;28;20055;-93
2023/12/10 14:55:32;;;;;;;46.45;21.70;;;;;;;;;;8300699;28;20071;-91
2023/12/10 14:59:39;;;;;;;51.92;24.40;;;;;;;;;;8300229;28;20050;-91
2023/12/10 15:03:46;;;;;;;48.58;21.65;;;;;;;;;;8300304;28;20085;-90
2023/12/10 15:07:52;;;;;;;45.53;19.83;;;;;;;;;;8300354;28;20137;-91
2023/12/10 15:11:55;;;;;;;84.97;36.22;;;;;;;;;;8300067;28;20069;-91
2023/12/10 15:16:02;;;;;;;67.93;28.95;;;;;;;;;;8300050;28;20088;-92
2023/12/10 15:20:09;;;;;;;232.77;64.30;;;;;;;;;;8300581;28;20124;-91
2023/12/10 15:24:15;;;;;;;135.80;43.00;;;;;;;;;;8299888;28;20042;-91
2023/12/10 15:28:22;;;;;;;69.28;26.20;;;;;;;;;;8301711;28;20053;-91
2023/12/10 15:32:26;;;;;;;192.90;53.97;;;;;;;;;;8300167;28;20041;-91
2023/12/10 15:36:35;;;;;;;58.97;25.77;;;;;;;;;;8298902;28;20050;-91
2023/12/10 15:40:38;;;;;;;73.78;26.25;;;;;;;;;;8299647;28;20413;-92
2023/12/10 15:44:41;;;;;;;97.93;31.60;;;;;;;;;;8282008;28;20050;-91
2023/12/10 15:48:51;;;;;;;112.63;33.38;;;;;;;;;;8299180;28;20069;-90
2023/12/10 15:52:58;;;;;;;51.03;21.95;;;;;;;;;;8299451;28;20576;-91
2023/12/10 15:57:02;;;;;;;47.53;20.40;;;;;;;;;;8299229;28;20046;-91
2023/12/10 16:01:13;;;;;;;88.45;28.63;;;;;;;;;;8298758;28;20417;-91
2023/12/10 16:05:19;;;;;;;91.72;31.77;;;;;;;;;;8299059;28;20038;-91
2023/12/10 16:09:24;;;;;;;83.43;34.45;;;;;;;;;;8281006;28;20053;-89
2023/12/10 16:13:27;;;;;;;49.78;20.83;;;;;;;;;;8298763;28;20077;-92
2023/12/10 16:17:31;;;;;;;107.00;34.83;;;;;;;;;;8298628;28;20124;-91
2023/12/10 16:21:41;;;;;;;53.38;22.30;;;;;;;;;;8298482;28;20049;-91
2023/12/10 16:25:46;;;;;;;58.85;27.25;;;;;;;;;;8281459;28;20080;-91
2023/12/10 16:29:49;;;;;;;44.20;20.45;;;;;;;;;;8298278;28;20054;-91
2023/12/10 16:33:53;;;;;;;62.88;26.15;;;;;;;;;;8298303;28;20077;-91
2023/12/10 16:37:58;;;;;;;89.40;31.80;;;;;;;;;;8298172;28;20050;-90
2023/12/10 16:42:04;;;;;;;51.40;21.88;;;;;;;;;;8298342;28;20486;-91
2023/12/10 16:46:09;;;;;;;67.00;28.80;;;;;;;;;;8298802;28;20050;-92
2023/12/10 16:50:14;;;;;;;57.15;25.00;;;;;;;;;;8304621;28;20141;-91
2023/12/10 16:54:19;;;;;;;47.33;19.77;;;;;;;;;;8304593;28;20046;-91
2023/12/10 16:58:24;;;;;;;44.78;20.60;;;;;;;;;;8303713;28;20555;-91
2023/12/10 17:02:27;;;;;;;41.97;20.38;;;;;;;;;;8303079;28;20057;-91
2023/12/10 17:06:33;;;;;;;44.17;21.75;;;;;;;;;;8303783;28;20068;-91
2023/12/10 17:10:37;;;;;;;38.75;17.58;;;;;;;;;;8303651;28;20046;-90
2023/12/10 17:14:41;;;;;;;48.65;20.77;;;;;;;;;;8304206;28;20508;-91
2023/12/10 17:18:45;;;;;;;67.65;30.67;;;;;;;;;;8303901;28;20046;-90
2023/12/10 17:22:50;;;;;;;42.90;20.75;;;;;;;;;;8303623;28;20625;-92
2023/12/10 17:26:53;;;;;;;75.38;33.90;;;;;;;;;;8303499;28;20046;-89
2023/12/10 17:30:58;;;;;;;41.45;18.92;;;;;;;;;;8303521;28;20402;-90
2023/12/10 17:35:01;;;;;;;44.63;20.02;;;;;;;;;;8303274;28;20065;-89
2023/12/10 17:39:04;;;;;;;38.25;18.35;;;;;;;;;;8285541;28;20405;-91
2023/12/10 17:43:07;;;;;;;80.30;32.17;;;;;;;;;;8303227;28;20037;-91
2023/12/10 17:47:12;;;;;;;44.92;19.70;;;;;;;;;;8302939;28;20124;-90
2023/12/10 17:51:15;;;;;;;38.50;18.65;;;;;;;;;;8302816;28;20101;-91
2023/12/10 17:55:18;;;;;;;54.38;23.73;;;;;;;;;;8303051;28;20096;-92
2023/12/10 17:59:22;;;;;;;41.35;16.70;;;;;;;;;;8302092;28;20100;-90
2023/12/10 18:03:27;;;;;;;44.10;19.73;;;;;;;;;;8302368;28;20070;-88
2023/12/10 18:07:31;;;;;;;42.40;18.10;;;;;;;;;;8302117;28;20148;-90
2023/12/10 18:11:39;;;;;;;36.35;18.17;;;;;;;;;;8301847;28;20056;-92
2023/12/10 18:15:44;;;;;;;42.00;17.25;;;;;;;;;;8302272;28;20042;-92
2023/12/10 18:19:48;;;;;;;39.15;17.33;;;;;;;;;;8284445;28;20418;-91
2023/12/10 18:23:51;;;;;;;34.10;15.38;;;;;;;;;;8302279;28;20456;-89
2023/12/10 18:27:56;;;;;;;41.10;20.98;;;;;;;;;;8302705;28;20335;-90
2023/12/10 18:31:59;;;;;;;37.25;17.48;;;;;;;;;;8301874;28;20401;-92
2023/12/10 18:36:13;;;;;;;42.10;19.15;;;;;;;;;;8301908;28;20053;-90
2023/12/10 18:40:22;;;;;;;33.83;16.60;;;;;;;;;;8301572;28;20081;-90
2023/12/10 18:44:29;;;;;;;29.95;14.95;;;;;;;;;;8301046;28;20044;-89
2023/12/10 18:48:39;;;;;;;33.83;16.15;;;;;;;;;;8301344;28;20134;-92
2023/12/10 18:52:44;;;;;;;24.27;11.85;;;;;;;;;;8301368;28;20072;-91
2023/12/10 18:57:06;;;;;;;34.38;15.80;;;;;;;;;;8280850;28;20057;-91
2023/12/10 19:01:10;;;;;;;33.90;15.15;;;;;;;;;;8301147;28;20136;-90
2023/12/10 19:05:14;;;;;;;33.47;15.88;;;;;;;;;;8300826;28;20081;-91
2023/12/10 19:09:22;;;;;;;31.88;14.38;;;;;;;;;;8300625;28;20052;-90
2023/12/10 19:13:25;;;;;;;29.40;14.13;;;;;;;;;;8300983;28;20046;-91
2023/12/10 19:17:28;;;;;;;30.60;15.02;;;;;;;;;;8300931;28;20639;-90
2023/12/10 19:21:32;;;;;;;34.75;14.95;;;;;;;;;;8300928;28;20038;-91
2023/12/10 19:25:39;;;;;;;36.15;15.73;;;;;;;;;;8282805;28;20457;-92
2023/12/10 19:29:43;;;;;;;36.20;15.43;;;;;;;;;;8282997;28;20057;-92
2023/12/10 19:33:49;;;;;;;37.95;16.42;;;;;;;;;;8298739;28;20429;-92
2023/12/10 19:37:56;;;;;;;37.63;18.00;;;;;;;;;;8298596;28;20046;-90
2023/12/10 19:42:17;;;;;;;39.42;16.63;;;;;;;;;;8299524;28;20049;-90
2023/12/10 19:46:21;;;;;;;36.22;15.80;;;;;;;;;;8299664;28;20049;-90
2023/12/10 19:50:32;;;;;;;37.22;16.15;;;;;;;;;;8299387;28;20050;-90
2023/12/10 19:54:34;;;;;;;35.80;17.45;;;;;;;;;;8281969;28;20125;-91
2023/12/10 19:58:41;;;;;;;39.72;18.80;;;;;;;;;;8299392;28;20476;-92
2023/12/10 20:02:44;;;;;;;35.97;17.52;;;;;;;;;;8299125;28;20054;-92
2023/12/10 20:06:47;;;;;;;34.42;16.52;;;;;;;;;;8299963;28;20049;-90
2023/12/10 20:10:53;;;;;;;41.92;17.15;;;;;;;;;;8299179;28;20052;-92
2023/12/10 20:14:58;;;;;;;35.83;17.40;;;;;;;;;;8299197;28;20073;-91
2023/12/10 20:19:03;;;;;;;38.55;17.45;;;;;;;;;;8299990;28;20046;-92
2023/12/10 20:23:07;;;;;;;50.00;21.45;;;;;;;;;;8307492;28;20125;-91
2023/12/10 20:27:10;;;;;;;40.63;18.27;;;;;;;;;;8310016;28;20049;-92
2023/12/10 20:31:15;;;;;;;46.78;17.40;;;;;;;;;;8309837;28;20077;-92
2023/12/10 20:35:18;;;;;;;42.65;18.45;;;;;;;;;;8309728;28;20063;-92
2023/12/10 20:39:22;;;;;;;32.22;14.35;;;;;;;;;;8310198;28;20041;-92
2023/12/10 20:43:26;;;;;;;45.83;20.67;;;;;;;;;;8309717;28;20054;-91
2023/12/10 20:47:31;;;;;;;51.45;21.63;;;;;;;;;;8309657;28;20070;-92
2023/12/10 20:51:34;;;;;;;54.05;22.48;;;;;;;;;;8309772;28;20547;-89
2023/12/10 20:55:38;;;;;;;45.70;22.13;;;;;;;;;;8292118;28;20401;-89
2023/12/10 20:59:42;;;;;;;47.72;20.10;;;;;;;;;;8310107;28;20042;-92
2023/12/10 21:03:50;;;;;;;49.25;22.63;;;;;;;;;;8309591;28;20046;-91
2023/12/10 21:07:56;;;;;;;46.35;19.58;;;;;;;;;;8309482;28;20045;-92
2023/12/10 21:12:01;;;;;;;45.55;19.77;;;;;;;;;;8309347;28;20077;-91
2023/12/10 21:16:05;;;;;;;48.40;20.08;;;;;;;;;;8309021;28;20052;-91
2023/12/10 21:20:10;;;;;;;52.15;22.58;;;;;;;;;;8308742;28;20057;-90
2023/12/10 21:24:17;;;;;;;52.60;21.52;;;;;;;;;;8309085;28;20077;-91
2023/12/10 21:28:20;;;;;;;47.97;20.95;;;;;;;;;;8308596;28;20069;-91
2023/12/10 21:32:23;;;;;;;51.45;22.40;;;;;;;;;;8307142;28;20450;-91
2023/12/10 21:36:28;;;;;;;36.50;16.90;;;;;;;;;;8304188;28;20037;-90
2023/12/10 21:40:31;;;;;;;38.25;16.85;;;;;;;;;;8303603;28;20485;-92
2023/12/10 21:44:37;;;;;;;36.47;18.27;;;;;;;;;;8303523;28;20045;-91
2023/12/10 21:48:41;;;;;;;45.90;18.98;;;;;;;;;;8304014;28;20049;-92
2023/12/10 21:52:46;;;;;;;49.28;20.67;;;;;;;;;;8303326;28;20127;-92
2023/12/10 21:56:50;;;;;;;37.38;16.40;;;;;;;;;;8303451;28;20050;-89
2023/12/10 22:00:57;;;;;;;40.40;16.88;;;;;;;;;;8302119;28;20054;-91
2023/12/10 22:05:00;;;;;;;38.97;17.33;;;;;;;;;;8285054;28;20054;-91
2023/12/10 22:09:06;;;;;;;38.72;16.27;;;;;;;;;;8302797;28;20613;-91
2023/12/10 22:13:09;;;;;;;38.30;17.58;;;;;;;;;;8302445;28;20049;-92
2023/12/10 22:17:12;;;;;;;40.67;17.42;;;;;;;;;;8302269;28;20108;-91
2023/12/10 22:21:15;;;;;;;42.00;17.13;;;;;;;;;;8302249;28;20120;-91
2023/12/10 22:25:19;;;;;;;38.60;16.70;;;;;;;;;;8284732;28;20185;-91
2023/12/10 22:29:22;;;;;;;30.77;13.93;;;;;;;;;;8302252;28;20150;-92
2023/12/10 22:33:25;;;;;;;43.67;18.98;;;;;;;;;;8302022;28;20046;-90
2023/12/10 22:37:28;;;;;;;38.28;18.23;;;;;;;;;;8301600;28;20049;-92
2023/12/10 22:41:33;;;;;;;38.30;16.75;;;;;;;;;;8284536;28;20107;-92
2023/12/10 22:45:36;;;;;;;34.55;14.77;;;;;;;;;;8300244;28;20498;-91
2023/12/10 22:49:39;;;;;;;30.83;13.43;;;;;;;;;;8301282;28;20050;-92
2023/12/10 22:53:42;;;;;;;37.80;15.48;;;;;;;;;;8302093;28;20056;-89
2023/12/10 22:57:47;;;;;;;35.55;16.38;;;;;;;;;;8301416;28;20054;-91
2023/12/10 23:01:50;;;;;;;24.58;13.50;;;;;;;;;;8304690;28;20553;-90
2023/12/10 23:05:53;;;;;;;35.55;14.40;;;;;;;;;;8302327;28;20537;-91
2023/12/10 23:09:55;;;;;;;33.75;14.27;;;;;;;;;;8300848;28;20283;-91
2023/12/10 23:14:00;;;;;;;33.58;13.00;;;;;;;;;;8300644;28;20045;-90
2023/12/10 23:18:03;;;;;;;35.28;16.00;;;;;;;;;;8300180;28;20509;-91
2023/12/10 23:22:06;;;;;;;36.83;17.02;;;;;;;;;;8300295;28;20061;-91
2023/12/10 23:26:09;;;;;;;41.08;18.40;;;;;;;;;;8300095;28;20509;-89
2023/12/10 23:30:14;;;;;;;35.90;15.10;;;;;;;;;;8299713;28;20508;-90
2023/12/10 23:34:17;;;;;;;34.47;15.10;;;;;;;;;;8299914;28;20052;-92
2023/12/10 23:38:20;;;;;;;33.17;15.45;;;;;;;;;;8299805;28;20049;-92
2023/12/10 23:42:23;;;;;;;46.55;16.95;;;;;;;;;;8299421;28;20117;-91
2023/12/10 23:46:30;;;;;;;39.30;15.73;;;;;;;;;;8299748;28;20096;-90
2023/12/10 23:50:33;;;;;;;36.17;15.32;;;;;;;;;;8299325;28;20059;-91
2023/12/10 23:54:38;;;;;;;34.20;15.27;;;;;;;;;;8299075;28;20049;-90